x

Smith Island, Wa (sisw1) Weather Station

5:00 - Tue 28th Jun 2016 All times are PDT. -7 hours from GMT.

  • Wind
    23mph, 26mph gusts
  • Aire Temp 52°f
  • Sea Pressure 1021.8mb
  • Smith Island, Wa
  • Smith Island, Wa

More Historic Weather Station data

Upgrade to MSW Pro to gain access to the past 30 days of data for over 8000 Wavebouys and Weather Stations around the globe.

Join Pro

Comparision Forecast

View Surf forecast
   
mar 06/28 5:00 23 26 mph 1021.8mb 52f
4:00 22 23 mph 1021.9mb 52f
3:00 21 22 mph 1021.9mb 53f
2:00 5 9 mph 1021.6mb 53f
1:00 23 31 mph 1020.4mb 53f
12:00 26 33 mph 1020.4mb 53f
lun 06/27 11:00 29 33 mph 1020.2mb 53f
10:00 31 33 mph 1019.9mb 53f
9:00 31 33 mph 1019.4mb 54f
8:00 26 30 mph 1019.6mb 55f
7:00 17 21 mph 1019.8mb 56f
6:00 7 11 mph 1020.2mb 58f
5:00 14 16 mph 1020.6mb 57f
4:00 10 14 mph 1020.9mb 59f
3:00 13 14 mph 1021mb 58f
2:00 9 11 mph 1021.2mb 58f
1:00 9 11 mph 1021.4mb 58f
12:00 6 8 mph 1021.4mb 56f
11:00 7 9 mph 1021.5mb 56f
10:00 6 7 mph 1021.6mb 56f
9:00 6 7 mph 1021.4mb 56f
8:00 6
mph
1021.2mb 55f
7:00 5 6 mph 1021mb 54f
6:00 6 7 mph 1020.6mb 53f
5:00 5 6 mph 1020.1mb 53f
4:00 9
mph
1020.1mb 54f
3:00 7 8 mph 1020.1mb 54f
2:00 8
mph
1020mb 55f
1:00 7 8 mph 1020.1mb 55f
12:00 13 17 mph 1020mb 54f
dom 06/26 11:00 15 17 mph 1019.9mb 54f
10:00 18 21 mph 1020.1mb 55f
9:00 16 17 mph 1020.2mb 55f
8:00 17 18 mph 1020.1mb 56f
7:00 14
mph
1020.3mb 60f
6:00 13
mph
1020.4mb 62f
5:00 10 11 mph 1021mb 63f
4:00 8
mph
1021.7mb 64f
3:00 11
mph
1022.2mb 60f
2:00 7 8 mph 1022.7mb 61f
1:00 6 8 mph 1023.4mb 60f
12:00 6 7 mph 1023.7mb 60f
11:00 8 10 mph 1023.8mb 57f
10:00 6 7 mph 1024.2mb 56f
9:00 3 5 mph 1024.3mb 54f
8:00 6 7 mph 1024mb 53f
7:00 5 6 mph 1023.9mb 52f
6:00 5 6 mph 1023.9mb 51f
5:00 6 7 mph 1023.7mb 51f
4:00 9 11 mph 1023.8mb 52f
3:00 11 13 mph 1023.8mb 52f
2:00 7 9 mph 1023.9mb 53f
1:00 8 10 mph 1024mb 53f
12:00 7 9 mph 1023.9mb 53f
sáb 06/25 11:00 16 18 mph 1023.7mb 53f
10:00 18 20 mph 1023.7mb 53f
9:00 17 18 mph 1023.5mb 54f
8:00 16 20 mph 1023.6mb 55f
7:00 15 16 mph 1023.8mb 55f
6:00 14
mph
1024.3mb 56f
5:00 10 11 mph 1024.7mb 57f
4:00 7
mph
1025.3mb 59f
3:00 6 7 mph 1025.6mb 59f
2:00 5 6 mph 1025.7mb 60f
1:00 6 7 mph 1025.9mb 60f
12:00 3 5 mph 1025.9mb 59f
11:00 7 8 mph 1025.8mb 58f
10:00 5 6 mph 1025.8mb 55f
9:00 9 10 mph 1026mb 55f
8:00 13 15 mph 1025.9mb 53f
7:00 11 13 mph 1025.7mb 53f
6:00 13
mph
1025.4mb 52f
5:00 11
mph
1025.3mb 53f
4:00 14 16 mph 1025.2mb 53f
3:00 14 18 mph 1025.3mb 53f
2:00 16 20 mph 1025.1mb 53f
1:00 18 24 mph 1025.1mb 54f
12:00 20 23 mph 1025mb 54f
vie 06/24 11:00 15 20 mph 1024.9mb 54f
10:00 16 17 mph 1025mb 54f
9:00 17 20 mph 1024.4mb 55f
8:00 18 22 mph 1024.2mb 55f
7:00 17 24 mph 1024.2mb 55f
6:00 18 23 mph 1024mb 55f
5:00 23 24 mph 1024.1mb 54f
4:00 21 23 mph 1024.1mb 56f
3:00 20 21 mph 1023.7mb 58f
2:00 13 14 mph 1023.4mb 57f